Maitland Visitors Centre, New South Wales

12:31 PM AEDT on December 20, 2014 (GMT +1100)
Ashtonfield | Change Station
CLOSE
Current Station
Personal Weather Station
Location: Ashtonfield, NEW SOUTH WALES
Elevation: 167 ft
Nearby Weather Stations

Elev 167 ft 32.77 °S, 151.60 °E | Updated 30 seconds ago

Overcast
Overcast
78.1 °F
Feels Like 79 °F
N
3.6
Wind Variable Wind from SW
Gusts 4.7 mph

Today
High -- | Low -- °F
--% Chance of Precip.
Yesterday
High -- | Low -- °F
Precip. -- in
5:41 AM 8:00 PM
Waning Crescent, 5% visible
Pressure 30.06 in
Visibility 6.2 miles
Clouds Mostly Cloudy 4000 ft
Overcast 5900 ft
Heat Index 79 °F
Dew Point 57 °F
Humidity 48%
Rainfall 0.00 in
Snow Depth Not available.
UV 4 out of 12
Pollen Not available.
Air Quality Not available.
Flu Activity Not available.
METAR YWLM 200100Z AUTO 11007KT 9999 // BKN040 OVC059 22/11 Q1018

More Conditions Fewer Conditions

Pressure 30.06 in
Visibility 6.2 miles
Clouds Mostly Cloudy 4000 ft
Overcast 5900 ft
Heat Index 79 °F
Dew Point 57 °F
Humidity 48%
Rainfall 0.00 in
Snow Depth Not available.
UV 4 out of 12
Pollen Not available.
Air Quality Not available.
Flu Activity Not available.
METAR YWLM 200100Z AUTO 11007KT 9999 // BKN040 OVC059 22/11 Q1018

More Conditions Fewer Conditions

10-Day Weather Forecast

Almanac

Astronomy

Dec. 20, 2014 Rise Set
Actual Time
Civil Twilight
Nautical Twilight
Astronomical Twilight
Moon
Length of Visible Light
Length of Day
Tomorrow will be .
, % of the Moon is Illuminated

Today's Extremes

Country Highs Country Lows

Community

WunderPhotos

Upload Photos

1,779,099 photos uploaded!

WunderBlogs® & News

Nearby

Air Quality

  Air Quality AQ Index Pollutant
Not available.

Snow Depth

Station Depth Elevation

Earthquake Activity

City Distance Mag. Time & Date
Minimum magnitude displayed is 2.5.

Coastal Water Temperatures

Place Temperature

Nearby Weather Stations